createdAt,value
2023-01-09T00:00:04.616Z,2.45
2023-01-09T00:05:12.072Z,2.67
2023-01-09T00:10:15.468Z,2.60
2023-01-09T00:15:18.615Z,2.60
2023-01-09T00:20:22.939Z,2.30
2023-01-09T00:25:25.811Z,2.33
2023-01-09T00:30:28.815Z,2.60
2023-01-09T00:35:33.335Z,2.42
2023-01-09T00:40:36.180Z,2.58
2023-01-09T00:45:39.262Z,2.45
2023-01-09T00:50:44.435Z,2.60
2023-01-09T00:55:47.415Z,2.15
2023-01-09T01:00:50.562Z,2.28
2023-01-09T01:06:12.388Z,2.13
2023-01-09T01:11:15.428Z,2.20
2023-01-09T01:16:19.166Z,2.40
2023-01-09T01:21:23.324Z,2.20
2023-01-09T01:26:26.155Z,2.47
2023-01-09T01:31:28.959Z,2.50
2023-01-09T01:36:34.283Z,2.72
2023-01-09T01:41:38.170Z,2.40
2023-01-09T01:46:41.037Z,2.53
2023-01-09T01:51:49.138Z,2.60
2023-01-09T01:56:56.973Z,2.30
2023-01-09T02:02:02.482Z,3.25
2023-01-09T02:07:10.222Z,2.55
2023-01-09T02:12:18.902Z,2.58
2023-01-09T02:17:46.161Z,2.28
2023-01-09T02:23:15.200Z,1.90
2023-01-09T02:28:55.143Z,2.15
2023-01-09T02:34:04.112Z,1.92
2023-01-09T02:39:22.321Z,1.92
2023-01-09T02:44:27.264Z,1.70
2023-01-09T02:49:32.733Z,1.65
2023-01-09T02:54:47.481Z,1.40
2023-01-09T03:00:04.057Z,1.23
2023-01-09T03:05:12.803Z,1.10
2023-01-09T03:10:21.011Z,1.30
2023-01-09T03:15:29.718Z,1.30
2023-01-09T03:20:33.972Z,1.10
2023-01-09T03:25:36.787Z,1.10
2023-01-09T03:30:39.605Z,1.23
2023-01-09T03:35:44.977Z,1.10
2023-01-09T03:40:48.254Z,0.95
2023-01-09T03:45:51.177Z,1.10
2023-01-09T03:50:56.810Z,1.30
2023-01-09T03:55:59.935Z,1.13
2023-01-09T04:01:05.370Z,1.00
2023-01-09T04:06:11.758Z,1.30
2023-01-09T04:11:14.684Z,1.02
2023-01-09T04:16:17.550Z,1.00
2023-01-09T04:21:21.747Z,1.00
2023-01-09T04:26:24.759Z,1.08
2023-01-09T04:31:27.824Z,1.00
2023-01-09T04:36:34.467Z,0.90
2023-01-09T04:41:52.095Z,0.80
2023-01-09T04:46:56.108Z,0.90
2023-01-09T04:52:00.278Z,1.00
2023-01-09T04:57:03.163Z,0.80
2023-01-09T05:02:06.177Z,0.70
2023-01-09T05:07:10.649Z,0.90
2023-01-09T05:12:13.531Z,0.85
2023-01-09T05:17:16.338Z,0.90
2023-01-09T05:22:20.579Z,0.90
2023-01-09T05:27:23.434Z,0.65
2023-01-09T05:32:26.259Z,0.77
2023-01-09T05:37:30.454Z,0.70
2023-01-09T05:42:33.344Z,0.70
2023-01-09T05:47:36.204Z,0.75
2023-01-09T05:52:40.449Z,0.55
2023-01-09T05:57:43.310Z,0.80
2023-01-09T06:02:46.211Z,0.70
2023-01-09T06:07:50.500Z,0.70
2023-01-09T06:12:54.590Z,0.68
2023-01-09T06:17:57.444Z,0.50
2023-01-09T06:23:01.707Z,0.60
2023-01-09T06:28:04.665Z,0.60
2023-01-09T06:33:07.557Z,0.60
2023-01-09T06:38:12.289Z,0.55
2023-01-09T06:43:15.089Z,0.50
2023-01-09T06:48:17.876Z,0.70
2023-01-09T06:53:22.256Z,0.50
2023-01-09T06:58:25.076Z,0.52
2023-01-09T07:03:28.037Z,0.50
2023-01-09T07:08:32.243Z,0.60
2023-01-09T07:13:35.047Z,0.50
2023-01-09T07:18:38.014Z,0.70
2023-01-09T07:23:42.165Z,0.43
2023-01-09T07:28:44.937Z,0.60
2023-01-09T07:33:47.726Z,0.40
2023-01-09T07:38:51.978Z,0.45
2023-01-09T07:43:54.903Z,0.40
2023-01-09T07:48:57.752Z,3.92
2023-01-09T07:54:02.135Z,1.60
2023-01-09T07:59:04.925Z,1.58
2023-01-09T08:04:07.801Z,1.45
2023-01-09T08:09:12.167Z,1.08
2023-01-09T08:14:15.257Z,1.75
2023-01-09T08:19:18.084Z,1.33
2023-01-09T08:24:22.281Z,1.45
2023-01-09T08:29:25.110Z,1.10
2023-01-09T08:34:28.076Z,1.40
2023-01-09T08:39:32.876Z,1.20
2023-01-09T08:44:53.373Z,1.67
2023-01-09T08:49:56.235Z,1.73
2023-01-09T08:55:00.430Z,1.70
2023-01-09T09:00:04.092Z,1.55
2023-01-09T09:05:07.910Z,1.55
2023-01-09T09:10:12.642Z,1.92
2023-01-09T09:15:20.007Z,1.90
2023-01-09T09:20:24.185Z,1.80
2023-01-09T09:25:29.034Z,1.73
2023-01-09T09:30:31.867Z,1.60
2023-01-09T09:35:35.159Z,1.80
2023-01-09T09:41:33.547Z,1.80
2023-01-09T09:46:43.489Z,1.48
2023-01-09T09:52:04.947Z,1.65
2023-01-09T09:57:15.716Z,1.80
2023-01-09T10:02:28.006Z,1.73
2023-01-09T10:07:41.889Z,1.48
2023-01-09T10:12:53.133Z,1.90
2023-01-09T10:18:06.738Z,1.70
2023-01-09T10:23:48.146Z,1.75
2023-01-09T10:29:11.920Z,1.73
2023-01-09T10:34:27.569Z,1.50
2023-01-09T10:39:36.766Z,1.50
2023-01-09T10:44:48.347Z,1.40
2023-01-09T10:49:53.260Z,1.58
2023-01-09T10:54:57.719Z,1.65
2023-01-09T11:00:02.095Z,1.20
2023-01-09T11:05:05.130Z,1.48
2023-01-09T11:10:11.783Z,1.50
2023-01-09T11:15:31.949Z,1.35
2023-01-09T11:20:34.753Z,1.42
2023-01-09T11:25:52.198Z,1.20
2023-01-09T11:31:00.710Z,1.50
2023-01-09T11:36:08.013Z,1.30
2023-01-09T11:41:19.371Z,1.17
2023-01-09T11:46:35.651Z,1.40
2023-01-09T11:51:38.557Z,1.73
2023-01-09T11:56:41.839Z,1.30
2023-01-09T12:02:14.357Z,1.42
2023-01-09T12:07:45.295Z,1.10
2023-01-09T12:12:58.816Z,1.38
2023-01-09T12:18:24.617Z,1.50
2023-01-09T12:23:43.959Z,1.40
2023-01-09T12:29:15.070Z,1.33
2023-01-09T12:34:30.991Z,1.30
2023-01-09T12:39:44.304Z,1.13
2023-01-09T12:44:52.302Z,1.50
2023-01-09T12:50:08.235Z,0.98
2023-01-09T12:55:18.790Z,1.33
2023-01-09T13:00:25.646Z,1.27
2023-01-09T13:05:35.261Z,1.17
2023-01-09T13:10:42.149Z,1.30
2023-01-09T13:15:48.447Z,1.05
2023-01-09T13:20:56.610Z,1.15
2023-01-09T13:26:01.408Z,1.20
2023-01-09T13:31:21.905Z,1.00
2023-01-09T13:36:29.753Z,0.93
2023-01-09T13:41:50.980Z,1.23
2023-01-09T13:46:56.549Z,0.80
2023-01-09T13:52:03.772Z,1.20
2023-01-09T13:57:28.630Z,0.93
2023-01-09T14:03:17.983Z,1.00
2023-01-09T14:08:24.081Z,1.38
2023-01-09T14:13:29.686Z,0.93
2023-01-09T14:18:35.787Z,0.77
2023-01-09T14:23:52.660Z,1.15
2023-01-09T14:29:48.537Z,0.80
2023-01-09T14:34:56.014Z,0.90
2023-01-09T14:39:59.826Z,0.70
2023-01-09T14:45:07.849Z,0.73
2023-01-09T14:50:18.527Z,0.85
2023-01-09T14:55:28.633Z,0.60
2023-01-09T15:00:33.140Z,0.70
2023-01-09T15:05:37.062Z,0.70
2023-01-09T15:10:40.095Z,0.80
2023-01-09T15:15:47.632Z,0.60
2023-01-09T15:20:59.108Z,0.60
2023-01-09T15:26:15.245Z,0.75
2023-01-09T15:31:23.543Z,0.63
2023-01-09T15:36:30.231Z,0.55
2023-01-09T15:41:50.601Z,0.60
2023-01-09T15:46:58.656Z,0.60
2023-01-09T15:52:02.274Z,0.63
2023-01-09T15:57:30.774Z,0.50
2023-01-09T16:02:52.673Z,0.68
2023-01-09T16:07:55.593Z,0.50
2023-01-09T16:12:59.005Z,0.77
2023-01-09T16:18:21.347Z,0.63
2023-01-09T16:23:30.208Z,0.50
2023-01-09T16:28:33.114Z,0.60
2023-01-09T16:33:45.017Z,0.50
2023-01-09T16:38:48.371Z,0.75
2023-01-09T16:43:51.866Z,0.68
2023-01-09T16:48:56.950Z,0.63
2023-01-09T16:53:59.804Z,0.70
2023-01-09T16:59:02.664Z,0.65
2023-01-09T17:04:12.439Z,0.70
2023-01-09T17:09:16.985Z,0.63
2023-01-09T17:14:19.842Z,0.85
2023-01-09T17:19:26.797Z,0.60
2023-01-09T17:24:46.863Z,0.57
2023-01-09T17:29:49.732Z,0.60
2023-01-09T17:34:53.945Z,0.80
2023-01-09T17:40:01.121Z,0.80
2023-01-09T17:45:04.056Z,0.60
2023-01-09T17:50:16.900Z,0.60
2023-01-09T17:55:19.793Z,0.73
2023-01-09T18:00:27.431Z,0.90
2023-01-09T18:05:32.101Z,1.10
2023-01-09T18:10:35.004Z,1.20
2023-01-09T18:15:39.485Z,1.10
2023-01-09T18:20:45.390Z,1.20
2023-01-09T18:25:48.802Z,1.10
2023-01-09T18:30:52.013Z,1.05
2023-01-09T18:35:56.260Z,0.90
2023-01-09T18:40:59.828Z,2.00
2023-01-09T18:46:06.882Z,2.75
2023-01-09T18:51:11.114Z,2.67
2023-01-09T18:56:14.007Z,6.72
2023-01-09T19:01:17.451Z,11.25
2023-01-09T19:06:21.841Z,9.18
2023-01-09T19:11:24.637Z,25.58
2023-01-09T19:16:27.598Z,26.33
2023-01-09T19:21:32.201Z,12.70
2023-01-09T19:26:35.125Z,10.80
2023-01-09T19:31:38.136Z,9.07
2023-01-09T19:36:44.669Z,7.90
2023-01-09T19:41:47.577Z,7.82
2023-01-09T19:46:50.432Z,7.43
2023-01-09T19:51:55.901Z,6.32
2023-01-09T19:56:58.722Z,6.30
2023-01-09T20:02:03.023Z,6.20
2023-01-09T20:07:07.823Z,5.90
2023-01-09T20:12:10.694Z,5.50
2023-01-09T20:17:13.562Z,5.35
2023-01-09T20:22:17.732Z,4.97
2023-01-09T20:27:20.539Z,4.45
2023-01-09T20:32:23.332Z,135.75
2023-01-09T20:37:27.561Z,62.78
2023-01-09T20:42:30.447Z,55.03
2023-01-09T20:47:33.390Z,50.45
2023-01-09T20:52:37.601Z,46.97
2023-01-09T20:57:40.687Z,44.63
2023-01-09T21:02:43.808Z,41.70
2023-01-09T21:07:47.961Z,39.58
2023-01-09T21:12:50.932Z,36.88
2023-01-09T21:17:55.576Z,35.40
2023-01-09T21:22:59.831Z,35.13
2023-01-09T21:28:02.648Z,32.53
2023-01-09T21:33:05.713Z,30.38
2023-01-09T21:38:09.870Z,30.77
2023-01-09T21:43:43.354Z,29.10
2023-01-09T21:48:46.155Z,27.58
2023-01-09T21:53:50.387Z,26.02
2023-01-09T21:58:53.201Z,24.65
2023-01-09T22:03:56.517Z,25.05
2023-01-09T22:09:00.715Z,22.48
2023-01-09T22:14:03.551Z,22.65
2023-01-09T22:19:06.417Z,21.35
2023-01-09T22:24:13.707Z,20.83
2023-01-09T22:29:17.080Z,20.30
2023-01-09T22:34:20.117Z,19.52
2023-01-09T22:39:25.383Z,18.35
2023-01-09T22:44:28.250Z,19.17
2023-01-09T22:49:41.162Z,16.40
2023-01-09T22:54:55.315Z,16.02
2023-01-09T22:59:58.310Z,13.93
2023-01-09T23:05:01.222Z,14.73
2023-01-09T23:10:06.330Z,13.00
2023-01-09T23:15:10.059Z,12.55
2023-01-09T23:20:13.491Z,10.75
2023-01-09T23:25:17.814Z,10.55
2023-01-09T23:30:20.611Z,9.07
2023-01-09T23:35:23.484Z,8.73
2023-01-09T23:40:27.691Z,9.02
2023-01-09T23:45:30.511Z,7.88
2023-01-09T23:50:33.733Z,7.60
2023-01-09T23:55:37.878Z,6.85
